createdAt,value
2019-05-16T00:04:33.726Z,46.69
2019-05-16T00:09:38.016Z,47.02
2019-05-16T00:14:41.150Z,47.14
2019-05-16T00:19:43.208Z,47.27
2019-05-16T00:24:45.471Z,47.57
2019-05-16T00:29:48.730Z,47.74
2019-05-16T00:34:50.937Z,47.82
2019-05-16T00:39:53.146Z,48.08
2019-05-16T00:44:55.297Z,48.36
2019-05-16T00:49:58.248Z,48.35
2019-05-16T00:55:02.850Z,48.41
2019-05-16T01:00:08.114Z,48.70
2019-05-16T01:05:09.729Z,48.90
2019-05-16T01:10:11.953Z,49.27
2019-05-16T01:15:18.363Z,49.63
2019-05-16T01:20:20.439Z,50.01
2019-05-16T01:25:22.490Z,50.32
2019-05-16T01:30:24.848Z,50.02
2019-05-16T01:35:27.892Z,50.42
2019-05-16T01:40:30.225Z,50.75
2019-05-16T01:45:32.278Z,51.08
2019-05-16T01:50:34.405Z,50.69
2019-05-16T01:55:38.114Z,50.68
2019-05-16T02:00:52.516Z,50.49
2019-05-16T02:05:47.926Z,50.15
2019-05-16T02:10:49.559Z,49.88
2019-05-16T02:15:51.663Z,50.32
2019-05-16T02:20:53.714Z,50.54
2019-05-16T02:25:57.823Z,50.97
2019-05-16T02:31:01.311Z,51.33
2019-05-16T02:36:03.740Z,51.74
2019-05-16T02:41:05.851Z,52.12
2019-05-16T02:46:11.615Z,52.69
2019-05-16T02:51:11.951Z,52.77
2019-05-16T02:56:14.162Z,53.54
2019-05-16T03:01:16.265Z,53.68
2019-05-16T03:06:21.145Z,54.66
2019-05-16T03:11:24.114Z,55.25
2019-05-16T03:16:31.600Z,56.21
2019-05-16T03:21:34.051Z,56.91
2019-05-16T03:26:36.799Z,57.09
2019-05-16T03:31:44.435Z,56.93
2019-05-16T03:36:43.881Z,57.02
2019-05-16T03:41:46.677Z,57.58
2019-05-16T03:46:51.687Z,57.98
2019-05-16T03:51:52.720Z,58.10
2019-05-16T03:56:54.814Z,58.63
2019-05-16T04:01:56.889Z,58.93
2019-05-16T04:07:01.443Z,58.69
2019-05-16T04:12:04.035Z,58.91
2019-05-16T04:17:06.101Z,58.79
2019-05-16T04:22:13.600Z,59.25
2019-05-16T04:27:15.651Z,59.60
2019-05-16T04:32:20.549Z,59.64
2019-05-16T04:37:26.039Z,59.79
2019-05-16T04:42:25.933Z,60.22
2019-05-16T04:47:31.450Z,60.13
2019-05-16T04:52:32.140Z,60.26
2019-05-16T04:57:37.815Z,60.25
2019-05-16T05:02:41.785Z,60.69
2019-05-16T05:07:44.193Z,60.73
2019-05-16T05:12:46.265Z,60.65
2019-05-16T05:18:21.754Z,60.99
2019-05-16T05:23:24.876Z,61.28
2019-05-16T05:28:26.964Z,61.35
2019-05-16T05:33:30.315Z,61.42
2019-05-16T05:38:34.919Z,61.68
2019-05-16T05:43:37.013Z,61.57
2019-05-16T05:48:41.098Z,61.54
2019-05-16T05:53:45.463Z,61.57
2019-05-16T05:58:47.524Z,61.80
2019-05-16T06:03:50.493Z,61.76
2019-05-16T06:08:52.971Z,61.87
2019-05-16T06:13:57.188Z,61.74
2019-05-16T06:19:00.888Z,61.96
2019-05-16T06:24:05.034Z,62.19
2019-05-16T06:29:10.181Z,62.34
2019-05-16T06:34:15.222Z,62.35
2019-05-16T06:39:16.220Z,62.67
2019-05-16T06:44:20.313Z,62.58
2019-05-16T06:49:22.331Z,62.84
2019-05-16T06:54:24.466Z,63.05
2019-05-16T06:59:26.539Z,62.88
2019-05-16T07:04:30.472Z,62.96
2019-05-16T07:09:32.808Z,62.99
2019-05-16T07:14:35.579Z,63.03
2019-05-16T07:19:37.688Z,62.95
2019-05-16T07:24:40.027Z,63.23
2019-05-16T07:29:43.691Z,63.42
2019-05-16T07:34:45.783Z,63.34
2019-05-16T07:39:50.876Z,63.62
2019-05-16T07:44:52.083Z,63.58
2019-05-16T07:49:54.145Z,63.71
2019-05-16T07:54:56.088Z,63.83
2019-05-16T08:00:00.173Z,63.99
2019-05-16T08:05:03.772Z,63.84
2019-05-16T08:10:06.119Z,63.90
2019-05-16T08:15:10.180Z,64.40
2019-05-16T08:20:13.024Z,64.20
2019-05-16T08:25:15.136Z,64.09
2019-05-16T08:30:20.805Z,64.21
2019-05-16T08:35:22.938Z,64.19
2019-05-16T08:40:24.983Z,64.38
2019-05-16T08:45:27.506Z,64.53
2019-05-16T08:50:34.728Z,64.51
2019-05-16T08:55:33.555Z,64.52
2019-05-16T09:00:35.689Z,64.46
2019-05-16T09:05:37.801Z,64.72
2019-05-16T09:10:51.372Z,64.62
2019-05-16T09:15:48.010Z,64.65
2019-05-16T09:20:50.323Z,64.70
2019-05-16T09:25:53.151Z,64.92
2019-05-16T09:30:57.750Z,65.10
2019-05-16T09:35:59.347Z,64.89
2019-05-16T09:41:07.915Z,65.08
2019-05-16T09:46:09.556Z,65.21
2019-05-16T09:51:11.786Z,65.06
2019-05-16T09:56:16.651Z,65.05
2019-05-16T10:01:17.847Z,64.84
2019-05-16T10:06:22.100Z,64.67
2019-05-16T10:11:31.228Z,64.46
2019-05-16T10:16:30.291Z,64.49
2019-05-16T10:21:36.972Z,64.41
2019-05-16T10:26:38.482Z,64.31
2019-05-16T10:31:48.466Z,64.23
2019-05-16T10:36:47.069Z,64.16
2019-05-16T10:41:48.531Z,64.04
2019-05-16T10:46:50.697Z,64.06
2019-05-16T10:51:57.546Z,63.86
2019-05-16T10:56:59.403Z,64.20
2019-05-16T11:02:01.725Z,64.32
2019-05-16T11:07:05.476Z,64.40
2019-05-16T11:12:07.537Z,64.17
2019-05-16T11:17:12.878Z,64.41
2019-05-16T11:22:13.693Z,64.51
2019-05-16T11:27:15.832Z,64.53
2019-05-16T11:32:17.962Z,64.22
2019-05-16T11:37:19.994Z,64.33
2019-05-16T11:42:22.075Z,64.68
2019-05-16T11:47:24.145Z,64.67
2019-05-16T11:52:26.212Z,64.70
2019-05-16T11:57:28.243Z,64.76
2019-05-16T12:02:30.350Z,64.67
2019-05-16T12:07:34.742Z,64.72
2019-05-16T12:12:38.687Z,64.59
2019-05-16T12:17:40.765Z,64.63
2019-05-16T12:22:42.833Z,64.57
2019-05-16T12:27:44.937Z,64.45
2019-05-16T12:32:47.224Z,64.66
2019-05-16T12:37:51.912Z,64.54
2019-05-16T12:42:54.465Z,64.44
2019-05-16T12:47:57.420Z,64.33
2019-05-16T12:52:59.750Z,64.44
2019-05-16T12:58:12.574Z,64.36
2019-05-16T13:03:07.190Z,64.40
2019-05-16T13:08:09.712Z,64.29
2019-05-16T13:13:11.868Z,64.21
2019-05-16T13:18:16.737Z,64.26
2019-05-16T13:23:18.531Z,64.29
2019-05-16T13:28:20.750Z,63.63
2019-05-16T13:33:27.979Z,63.47
2019-05-16T13:38:30.107Z,63.76
2019-05-16T13:43:32.171Z,63.68
2019-05-16T13:48:34.262Z,63.67
2019-05-16T13:53:37.013Z,63.38
2019-05-16T13:58:39.286Z,63.50
2019-05-16T14:03:43.220Z,63.20
2019-05-16T14:08:46.767Z,62.77
2019-05-16T14:13:49.052Z,62.51
2019-05-16T14:18:52.234Z,62.62
2019-05-16T14:23:56.777Z,63.10
2019-05-16T14:28:58.934Z,63.02
2019-05-16T14:34:01.475Z,62.58
2019-05-16T14:39:05.823Z,62.62
2019-05-16T14:44:07.972Z,61.77
2019-05-16T14:49:11.126Z,62.01
2019-05-16T14:54:13.230Z,62.00
2019-05-16T14:59:15.261Z,61.69
2019-05-16T15:04:17.357Z,61.79
2019-05-16T15:09:19.378Z,61.85
2019-05-16T15:14:21.477Z,62.45
2019-05-16T15:19:23.561Z,62.22
2019-05-16T15:24:26.854Z,62.02
2019-05-16T15:29:29.239Z,62.53
2019-05-16T15:34:34.476Z,62.68
2019-05-16T15:39:37.390Z,63.13
2019-05-16T15:44:42.939Z,62.92
2019-05-16T15:49:47.561Z,63.00
2019-05-16T15:54:49.644Z,63.23
2019-05-16T15:59:51.702Z,62.90
2019-05-16T16:04:53.747Z,62.98
2019-05-16T16:09:57.654Z,63.02
2019-05-16T16:15:01.301Z,62.98
2019-05-16T16:20:03.497Z,63.18
2019-05-16T16:25:06.845Z,63.49
2019-05-16T16:30:09.472Z,63.21
2019-05-16T16:35:14.060Z,63.14
2019-05-16T16:40:17.574Z,63.32
2019-05-16T16:45:20.083Z,63.02
2019-05-16T16:50:22.214Z,62.60
2019-05-16T16:55:27.389Z,62.82
2019-05-16T17:00:29.162Z,63.00
2019-05-16T17:05:31.238Z,63.14
2019-05-16T17:10:33.328Z,63.49
2019-05-16T17:15:36.809Z,63.88
2019-05-16T17:20:40.492Z,63.76
2019-05-16T17:25:42.573Z,63.82
2019-05-16T17:30:46.863Z,63.95
2019-05-16T17:35:49.171Z,64.21
2019-05-16T17:40:51.543Z,64.20
2019-05-16T17:45:53.555Z,64.39
2019-05-16T17:50:57.067Z,64.63
2019-05-16T17:55:59.259Z,64.38
2019-05-16T18:01:01.318Z,64.58
2019-05-16T18:06:03.362Z,64.49
2019-05-16T18:11:07.223Z,64.46
2019-05-16T18:16:13.878Z,64.27
2019-05-16T18:21:16.989Z,64.20
2019-05-16T18:26:19.337Z,64.42
2019-05-16T18:31:21.385Z,64.87
2019-05-16T18:36:23.605Z,64.44
2019-05-16T18:41:27.178Z,64.31
2019-05-16T18:46:29.408Z,64.54
2019-05-16T18:51:31.523Z,64.48
2019-05-16T18:56:36.566Z,64.29
2019-05-16T19:01:39.943Z,64.11
2019-05-16T19:06:42.025Z,64.43
2019-05-16T19:11:44.088Z,64.29
2019-05-16T19:16:48.919Z,64.72
2019-05-16T19:21:50.147Z,64.73
2019-05-16T19:26:53.251Z,64.64
2019-05-16T19:31:57.108Z,64.45
2019-05-16T19:36:59.321Z,64.18
2019-05-16T19:42:01.445Z,64.10
2019-05-16T19:47:03.507Z,64.03
2019-05-16T19:52:07.228Z,64.19
2019-05-16T19:57:09.476Z,63.95
2019-05-16T20:02:11.532Z,63.94
2019-05-16T20:07:13.569Z,63.75
2019-05-16T20:12:16.874Z,63.87
2019-05-16T20:17:19.434Z,63.93
2019-05-16T20:22:21.661Z,63.82
2019-05-16T20:27:23.733Z,63.96
2019-05-16T20:32:27.626Z,63.91
2019-05-16T20:37:29.801Z,63.85
2019-05-16T20:42:31.863Z,63.97
2019-05-16T20:47:33.907Z,64.06
2019-05-16T20:52:37.900Z,64.10
2019-05-16T20:57:39.954Z,64.08
2019-05-16T21:02:42.054Z,64.12
2019-05-16T21:07:46.077Z,64.16
2019-05-16T21:12:49.082Z,64.28
2019-05-16T21:17:51.190Z,64.30
2019-05-16T21:22:53.287Z,64.38
2019-05-16T21:27:57.325Z,64.46
2019-05-16T21:32:59.340Z,64.95
2019-05-16T21:38:01.413Z,64.71
2019-05-16T21:43:03.606Z,64.69
2019-05-16T21:48:07.451Z,64.73
2019-05-16T21:53:09.723Z,64.81
2019-05-16T21:58:11.731Z,64.81
2019-05-16T22:03:14.316Z,64.86
2019-05-16T22:08:16.883Z,65.06
2019-05-16T22:13:19.034Z,65.56
2019-05-16T22:18:21.216Z,65.34
2019-05-16T22:23:23.295Z,65.51
2019-05-16T22:28:27.538Z,65.53
2019-05-16T22:33:29.561Z,65.79
2019-05-16T22:38:31.733Z,65.81
2019-05-16T22:43:33.857Z,66.05
2019-05-16T22:48:37.242Z,66.00
2019-05-16T22:53:39.374Z,66.03
2019-05-16T22:58:41.492Z,65.91
2019-05-16T23:03:43.561Z,65.67
2019-05-16T23:08:47.116Z,65.51
2019-05-16T23:13:49.443Z,65.34
2019-05-16T23:18:51.496Z,65.34
2019-05-16T23:23:57.107Z,65.45
2019-05-16T23:28:59.369Z,65.15
2019-05-16T23:34:01.403Z,65.10
2019-05-16T23:39:06.263Z,65.07
2019-05-16T23:44:08.416Z,65.36
2019-05-16T23:49:10.509Z,65.18
2019-05-16T23:54:12.710Z,64.91
2019-05-16T23:59:16.995Z,65.12
